createdAt,value
2022-11-05T00:01:59.316Z,36.90
2022-11-05T00:04:49.069Z,33.40
2022-11-05T00:07:40.699Z,33.70
2022-11-05T00:10:19.815Z,34.40
2022-11-05T00:13:15.360Z,37.70
2022-11-05T00:16:06.527Z,32.90
2022-11-05T00:18:40.831Z,32.00
2022-11-05T00:25:18.675Z,31.60
2022-11-05T00:27:52.880Z,27.90
2022-11-05T00:30:27.819Z,33.40
2022-11-05T00:33:04.380Z,28.90
2022-11-05T00:35:37.059Z,33.10
2022-11-05T00:38:09.598Z,30.90
2022-11-05T00:40:42.709Z,30.60
2022-11-05T00:43:31.939Z,32.50
2022-11-05T00:46:04.629Z,31.70
2022-11-05T00:48:54.507Z,31.10
2022-11-05T00:51:27.024Z,35.60
2022-11-05T00:53:59.790Z,31.80
2022-11-05T00:56:32.330Z,33.00
2022-11-05T00:59:06.740Z,30.90
2022-11-05T01:01:39.309Z,36.70
2022-11-05T01:04:12.319Z,31.90
2022-11-05T01:06:44.939Z,31.30
2022-11-05T01:09:17.559Z,28.00
2022-11-05T01:11:49.970Z,29.80
2022-11-05T01:14:22.470Z,29.90
2022-11-05T01:16:55.469Z,31.20
2022-11-05T01:19:29.720Z,32.70
2022-11-05T01:22:02.429Z,30.50
2022-11-05T01:24:56.888Z,30.80
2022-11-05T01:27:31.669Z,30.40
2022-11-05T01:30:24.509Z,28.50
2022-11-05T01:33:16.863Z,30.50
2022-11-05T01:35:52.100Z,31.40
2022-11-05T01:38:25.751Z,32.30
2022-11-05T01:40:58.761Z,31.30
2022-11-05T01:43:50.159Z,31.00
2022-11-05T01:46:30.460Z,33.60
2022-11-05T01:49:12.520Z,37.00
2022-11-05T01:51:47.680Z,36.10
2022-11-05T01:54:26.105Z,31.90
2022-11-05T01:57:01.999Z,30.10
2022-11-05T01:59:37.078Z,35.70
2022-11-05T02:02:12.052Z,35.00
2022-11-05T02:04:49.208Z,37.30
2022-11-05T02:07:22.532Z,36.50
2022-11-05T02:09:59.071Z,35.00
2022-11-05T02:12:32.270Z,37.00
2022-11-05T02:15:05.080Z,29.40
2022-11-05T02:17:45.260Z,36.70
2022-11-05T02:20:39.669Z,29.60
2022-11-05T02:23:50.110Z,30.70
2022-11-05T02:27:00.280Z,31.70
2022-11-05T02:30:07.143Z,34.40
2022-11-05T02:33:04.019Z,36.60
2022-11-05T02:36:00.997Z,31.40
2022-11-05T02:38:42.510Z,27.00
2022-11-05T02:41:20.386Z,33.80
2022-11-05T02:44:10.587Z,34.10
2022-11-05T02:46:55.932Z,36.70
2022-11-05T02:49:40.837Z,30.60
2022-11-05T02:52:21.619Z,35.50
2022-11-05T02:55:00.419Z,37.80
2022-11-05T02:57:38.959Z,35.10
2022-11-05T03:00:51.691Z,37.60
2022-11-05T03:03:31.221Z,36.10
2022-11-05T03:06:20.519Z,35.60
2022-11-05T03:09:18.540Z,32.90
2022-11-05T03:12:02.229Z,33.00
2022-11-05T03:14:42.704Z,31.50
2022-11-05T03:17:29.800Z,30.80
2022-11-05T03:20:09.699Z,23.10
2022-11-05T03:22:45.587Z,21.90
2022-11-05T03:25:22.208Z,16.20
2022-11-05T03:28:00.642Z,14.40
2022-11-05T03:30:35.483Z,13.20
2022-11-05T03:33:14.431Z,11.80
2022-11-05T03:35:50.643Z,10.80
2022-11-05T03:38:29.600Z,9.30
2022-11-05T03:41:06.750Z,8.70
2022-11-05T03:43:43.730Z,8.30
2022-11-05T03:46:23.324Z,7.50
2022-11-05T03:48:58.804Z,7.80
2022-11-05T03:51:40.140Z,8.00
2022-11-05T03:54:13.249Z,8.60
2022-11-05T03:56:56.349Z,7.80
2022-11-05T03:59:29.854Z,7.30
2022-11-05T04:04:33.169Z,6.80
2022-11-05T04:10:28.027Z,7.30
2022-11-05T04:13:17.847Z,7.30
2022-11-05T04:16:07.971Z,5.70
2022-11-05T04:18:40.809Z,5.70
2022-11-05T04:21:31.664Z,6.90
2022-11-05T04:24:10.053Z,7.00
2022-11-05T04:26:44.939Z,8.40
2022-11-05T04:29:31.299Z,7.20
2022-11-05T04:32:03.999Z,8.20
2022-11-05T04:34:36.777Z,7.20
2022-11-05T04:37:09.149Z,7.40
2022-11-05T04:39:41.920Z,7.70
2022-11-05T04:42:14.468Z,8.20
2022-11-05T04:44:47.269Z,7.60
2022-11-05T04:47:19.519Z,12.60
2022-11-05T04:49:52.169Z,8.50
2022-11-05T04:52:24.760Z,9.10
2022-11-05T04:54:57.559Z,8.30
2022-11-05T04:57:30.059Z,9.30
2022-11-05T05:00:03.048Z,9.10
2022-11-05T05:02:35.859Z,9.30
2022-11-05T05:05:09.583Z,8.80
2022-11-05T05:07:42.269Z,10.30
2022-11-05T05:10:16.130Z,10.00
2022-11-05T05:12:51.583Z,11.30
2022-11-05T05:15:26.131Z,12.10
2022-11-05T05:17:58.538Z,11.80
2022-11-05T05:20:48.280Z,11.90
2022-11-05T05:23:20.778Z,12.50
2022-11-05T05:25:53.589Z,11.80
2022-11-05T05:28:26.220Z,11.80
2022-11-05T05:31:04.268Z,9.40
2022-11-05T05:33:36.629Z,13.00
2022-11-05T05:36:11.607Z,12.40
2022-11-05T05:38:44.297Z,11.40
2022-11-05T05:41:16.879Z,15.00
2022-11-05T05:43:49.391Z,13.80
2022-11-05T05:46:23.800Z,13.50
2022-11-05T05:48:56.341Z,12.50
2022-11-05T05:51:30.600Z,12.60
2022-11-05T05:54:03.535Z,11.70
2022-11-05T05:56:36.319Z,12.20
2022-11-05T05:59:10.160Z,11.50
2022-11-05T06:01:44.534Z,12.70
2022-11-05T06:04:17.709Z,11.80
2022-11-05T06:06:51.450Z,11.90
2022-11-05T06:09:24.472Z,12.80
2022-11-05T06:11:57.049Z,12.30
2022-11-05T06:14:29.528Z,13.80
2022-11-05T06:17:02.439Z,12.70
2022-11-05T06:19:35.196Z,12.60
2022-11-05T06:22:08.200Z,15.60
2022-11-05T06:24:40.852Z,14.00
2022-11-05T06:27:13.498Z,12.80
2022-11-05T06:29:45.920Z,13.50
2022-11-05T06:32:18.897Z,13.80
2022-11-05T06:34:51.279Z,14.10
2022-11-05T06:37:24.206Z,14.50
2022-11-05T06:39:57.856Z,15.90
2022-11-05T06:42:30.564Z,16.40
2022-11-05T06:45:03.107Z,19.90
2022-11-05T06:47:35.718Z,17.00
2022-11-05T06:50:09.067Z,15.40
2022-11-05T06:55:14.349Z,16.60
2022-11-05T06:57:47.136Z,18.70
2022-11-05T07:00:20.986Z,20.90
2022-11-05T07:02:56.238Z,17.40
2022-11-05T07:05:29.408Z,19.30
2022-11-05T07:08:02.849Z,20.40
2022-11-05T07:10:35.999Z,18.90
2022-11-05T07:13:09.205Z,22.40
2022-11-05T07:15:42.078Z,22.30
2022-11-05T07:18:14.919Z,20.10
2022-11-05T07:20:47.964Z,21.60
2022-11-05T07:23:20.720Z,18.20
2022-11-05T07:25:53.133Z,23.90
2022-11-05T07:28:25.976Z,16.90
2022-11-05T07:30:59.797Z,20.50
2022-11-05T07:33:36.452Z,20.00
2022-11-05T07:36:10.418Z,19.80
2022-11-05T07:41:16.649Z,16.20
2022-11-05T07:43:49.230Z,18.00
2022-11-05T07:46:21.829Z,18.70
2022-11-05T07:48:54.571Z,16.20
2022-11-05T07:51:27.400Z,16.10
2022-11-05T07:53:59.949Z,16.80
2022-11-05T07:56:40.052Z,14.30
2022-11-05T07:59:13.069Z,13.40
2022-11-05T08:01:47.312Z,13.80
2022-11-05T08:04:20.024Z,14.10
2022-11-05T08:06:53.169Z,16.20
2022-11-05T08:09:25.849Z,15.30
2022-11-05T08:12:03.022Z,13.70
2022-11-05T08:14:36.371Z,15.70
2022-11-05T08:17:15.972Z,17.20
2022-11-05T08:19:51.003Z,15.10
2022-11-05T08:22:23.781Z,41.00
2022-11-05T08:24:58.662Z,21.60
2022-11-05T08:27:33.279Z,17.70
2022-11-05T08:30:06.609Z,16.50
2022-11-05T08:32:39.419Z,14.80
2022-11-05T08:35:12.730Z,14.20
2022-11-05T08:37:45.489Z,16.50
2022-11-05T08:40:18.348Z,15.70
2022-11-05T08:42:50.989Z,15.50
2022-11-05T08:45:23.662Z,16.60
2022-11-05T08:48:02.536Z,15.60
2022-11-05T08:50:35.982Z,16.10
2022-11-05T08:53:08.832Z,14.00
2022-11-05T08:55:43.818Z,12.80
2022-11-05T08:58:18.498Z,13.90
2022-11-05T09:00:53.130Z,17.00
2022-11-05T09:03:25.759Z,13.30
2022-11-05T09:05:58.951Z,12.90
2022-11-05T09:08:31.650Z,12.60
2022-11-05T09:11:04.362Z,13.80
2022-11-05T09:13:37.235Z,14.40
2022-11-05T09:16:15.861Z,13.30
2022-11-05T09:18:50.558Z,13.90
2022-11-05T09:21:23.738Z,12.70
2022-11-05T09:23:56.458Z,12.80
2022-11-05T09:26:29.438Z,12.80
2022-11-05T09:29:02.189Z,12.10
2022-11-05T09:31:34.959Z,13.00
2022-11-05T09:34:08.338Z,13.10
2022-11-05T09:36:41.090Z,15.00
2022-11-05T09:39:13.714Z,14.00
2022-11-05T09:41:47.512Z,16.70
2022-11-05T09:44:24.141Z,14.40
2022-11-05T09:47:01.448Z,16.20
2022-11-05T09:49:40.268Z,12.20
2022-11-05T09:52:20.458Z,15.90
2022-11-05T09:54:53.109Z,12.50
2022-11-05T09:57:29.599Z,14.70
2022-11-05T10:00:04.059Z,13.10
2022-11-05T10:02:49.352Z,12.20
2022-11-05T10:05:24.170Z,15.30
2022-11-05T10:07:59.977Z,13.00
2022-11-05T10:10:41.019Z,11.80
2022-11-05T10:13:23.980Z,10.50
2022-11-05T10:16:03.180Z,9.80
2022-11-05T10:18:38.648Z,9.80
2022-11-05T10:21:32.367Z,9.60
2022-11-05T10:24:17.270Z,9.10
2022-11-05T10:26:52.398Z,9.10
2022-11-05T10:29:29.650Z,9.60
2022-11-05T10:32:05.907Z,8.10
2022-11-05T10:34:41.617Z,9.80
2022-11-05T10:37:14.626Z,9.90
2022-11-05T10:39:47.338Z,13.40
2022-11-05T10:42:48.868Z,14.20
2022-11-05T10:45:32.398Z,9.50
2022-11-05T10:48:43.946Z,9.80
2022-11-05T10:51:19.176Z,10.70
2022-11-05T10:54:01.678Z,10.30
2022-11-05T10:56:39.500Z,11.00
2022-11-05T10:59:27.297Z,9.80
2022-11-05T11:02:05.722Z,12.70
2022-11-05T11:04:38.651Z,9.50
2022-11-05T11:07:23.252Z,11.30
2022-11-05T11:09:56.850Z,14.80
2022-11-05T11:15:06.827Z,17.70
2022-11-05T11:17:39.670Z,12.10
2022-11-05T11:20:31.455Z,8.40
2022-11-05T11:23:15.121Z,9.00
2022-11-05T11:25:53.604Z,8.60
2022-11-05T11:28:29.987Z,8.20
2022-11-05T11:31:10.580Z,8.50
2022-11-05T11:33:48.279Z,6.90
2022-11-05T11:36:26.744Z,7.30
2022-11-05T11:39:06.018Z,7.20
2022-11-05T11:41:43.021Z,6.10
2022-11-05T11:44:19.669Z,6.40
2022-11-05T11:46:54.359Z,6.90
2022-11-05T11:49:46.729Z,7.80
2022-11-05T11:52:26.879Z,8.20
2022-11-05T11:55:18.798Z,8.50
2022-11-05T11:57:54.343Z,6.80
2022-11-05T12:00:27.850Z,7.00
2022-11-05T12:03:25.493Z,8.80
2022-11-05T12:06:06.431Z,11.60
2022-11-05T12:09:00.566Z,9.90
2022-11-05T12:11:45.521Z,7.60
2022-11-05T12:14:28.832Z,9.20
2022-11-05T12:17:21.562Z,8.60
2022-11-05T12:20:13.169Z,7.30
2022-11-05T12:22:59.632Z,8.50
2022-11-05T12:25:42.127Z,9.60
2022-11-05T12:29:04.523Z,8.20
2022-11-05T12:31:44.970Z,9.50
2022-11-05T12:34:35.759Z,10.40
2022-11-05T12:37:21.140Z,12.10
2022-11-05T12:40:13.511Z,12.20
2022-11-05T12:43:03.596Z,11.30
2022-11-05T12:45:49.239Z,5.90
2022-11-05T12:48:37.270Z,18.70
2022-11-05T12:51:21.747Z,10.90
2022-11-05T12:54:14.271Z,8.10
2022-11-05T12:56:50.588Z,8.50
2022-11-05T12:59:33.181Z,9.40
2022-11-05T13:02:12.983Z,8.10
2022-11-05T13:04:50.618Z,8.20
2022-11-05T13:07:30.326Z,10.00
2022-11-05T13:10:09.298Z,10.80
2022-11-05T13:12:44.439Z,8.60
2022-11-05T13:15:27.619Z,8.00
2022-11-05T13:18:05.408Z,8.60
2022-11-05T13:20:46.581Z,7.50
2022-11-05T13:23:26.461Z,9.00
2022-11-05T13:26:08.054Z,6.60
2022-11-05T13:28:47.299Z,6.50
2022-11-05T13:31:24.397Z,8.00
2022-11-05T13:33:59.196Z,10.40
2022-11-05T13:36:53.808Z,15.00
2022-11-05T13:39:31.273Z,10.50
2022-11-05T13:42:23.988Z,12.70
2022-11-05T13:45:16.350Z,16.40
2022-11-05T13:48:07.632Z,12.20
2022-11-05T13:51:21.800Z,10.80
2022-11-05T13:54:24.691Z,10.60
2022-11-05T13:57:15.581Z,14.50
2022-11-05T14:00:03.571Z,19.10
2022-11-05T14:02:41.897Z,17.00
2022-11-05T14:05:26.760Z,10.30
2022-11-05T14:08:04.689Z,25.70
2022-11-05T14:10:41.299Z,14.10
2022-11-05T14:13:28.150Z,11.00
2022-11-05T14:16:08.026Z,14.10
2022-11-05T14:18:47.298Z,14.70
2022-11-05T14:21:50.441Z,61.20
2022-11-05T14:24:47.741Z,47.70
2022-11-05T14:27:47.328Z,25.70
2022-11-05T14:30:44.740Z,39.90
2022-11-05T14:33:40.025Z,39.70
2022-11-05T14:36:31.300Z,50.00
2022-11-05T14:39:20.459Z,48.10
2022-11-05T14:42:05.789Z,81.50
2022-11-05T14:44:57.119Z,58.10
2022-11-05T14:47:34.374Z,65.20
2022-11-05T14:50:21.116Z,67.90
2022-11-05T14:52:57.888Z,31.80
2022-11-05T14:55:35.189Z,35.10
2022-11-05T14:58:33.510Z,49.30
2022-11-05T15:01:08.631Z,80.30
2022-11-05T15:04:08.011Z,48.80
2022-11-05T15:06:41.046Z,77.80
2022-11-05T15:09:39.958Z,31.70
2022-11-05T15:12:24.006Z,62.00
2022-11-05T15:15:05.999Z,76.90
2022-11-05T15:17:49.499Z,70.60
2022-11-05T15:20:25.588Z,61.50
2022-11-05T15:23:01.679Z,160.10
2022-11-05T15:25:43.479Z,128.60
2022-11-05T15:28:24.379Z,243.50
2022-11-05T15:31:02.468Z,124.50
2022-11-05T15:33:36.666Z,26.20
2022-11-05T15:36:23.969Z,29.80
2022-11-05T15:41:51.808Z,13.50
2022-11-05T15:44:35.088Z,12.70
2022-11-05T15:47:18.588Z,16.20
2022-11-05T15:49:53.699Z,18.60
2022-11-05T15:52:36.800Z,13.30
2022-11-05T15:55:22.660Z,13.40
2022-11-05T15:58:00.488Z,11.60
2022-11-05T16:00:35.750Z,11.40
2022-11-05T16:03:17.599Z,12.70
2022-11-05T16:05:51.631Z,12.00
2022-11-05T16:08:27.181Z,10.90
2022-11-05T16:11:04.440Z,12.10
2022-11-05T16:13:39.985Z,10.70
2022-11-05T16:16:36.310Z,9.60
2022-11-05T16:19:40.957Z,8.00
2022-11-05T16:22:13.907Z,8.80
2022-11-05T16:24:48.747Z,9.20
2022-11-05T16:27:23.858Z,8.10
2022-11-05T16:29:59.991Z,10.20
2022-11-05T16:32:36.559Z,9.80
2022-11-05T16:35:19.688Z,9.00
2022-11-05T16:37:53.082Z,11.00
2022-11-05T16:40:27.129Z,9.90
2022-11-05T16:43:10.928Z,10.30
2022-11-05T16:45:43.468Z,9.90
2022-11-05T16:48:17.529Z,12.80
2022-11-05T16:50:50.169Z,11.10
2022-11-05T16:53:23.098Z,11.30
2022-11-05T16:55:58.710Z,13.20
2022-11-05T17:01:08.796Z,17.70
2022-11-05T17:03:43.213Z,18.60
2022-11-05T17:08:47.637Z,23.60
2022-11-05T17:11:22.657Z,19.60
2022-11-05T17:13:56.207Z,20.60
2022-11-05T17:16:30.728Z,20.10
2022-11-05T17:19:04.041Z,30.40
2022-11-05T17:21:38.108Z,18.80
2022-11-05T17:24:14.088Z,19.80
2022-11-05T17:26:47.068Z,20.60
2022-11-05T17:29:19.700Z,27.20
2022-11-05T17:31:55.899Z,20.20
2022-11-05T17:34:32.158Z,13.70
2022-11-05T17:37:06.045Z,14.10
2022-11-05T17:39:40.382Z,17.40
2022-11-05T17:42:14.506Z,16.70
2022-11-05T17:44:47.210Z,19.70
2022-11-05T17:47:20.649Z,16.20
2022-11-05T17:49:54.792Z,15.20
2022-11-05T17:52:29.330Z,18.10
2022-11-05T17:55:03.130Z,14.70
2022-11-05T17:57:36.368Z,17.10
2022-11-05T18:00:12.829Z,14.90
2022-11-05T18:02:46.584Z,15.90
2022-11-05T18:05:22.987Z,17.90
2022-11-05T18:07:56.521Z,14.90
2022-11-05T18:10:29.143Z,13.90
2022-11-05T18:13:01.954Z,12.70
2022-11-05T18:15:35.869Z,13.00
2022-11-05T18:18:08.839Z,13.00
2022-11-05T18:20:43.440Z,11.90
2022-11-05T18:23:17.210Z,11.30
2022-11-05T18:25:49.879Z,16.50
2022-11-05T18:28:23.699Z,13.50
2022-11-05T18:30:58.251Z,11.50
2022-11-05T18:33:31.743Z,12.00
2022-11-05T18:36:05.749Z,13.50
2022-11-05T18:38:44.289Z,11.00
2022-11-05T18:41:18.958Z,14.80
2022-11-05T18:43:54.186Z,13.20
2022-11-05T18:46:55.740Z,10.60
2022-11-05T18:51:55.139Z,15.10
2022-11-05T18:54:28.710Z,13.50
2022-11-05T18:57:02.398Z,13.70
2022-11-05T18:59:38.569Z,12.90
2022-11-05T19:02:35.610Z,13.60
2022-11-05T19:05:32.418Z,13.40
2022-11-05T19:10:43.249Z,14.80
2022-11-05T19:13:20.539Z,15.90
2022-11-05T19:15:54.499Z,13.80
2022-11-05T19:18:28.100Z,16.20
2022-11-05T19:21:01.011Z,13.80
2022-11-05T19:23:38.119Z,13.80
2022-11-05T19:26:17.051Z,14.10
2022-11-05T19:28:51.387Z,15.20
2022-11-05T19:31:25.999Z,14.50
2022-11-05T19:34:00.750Z,17.60
2022-11-05T19:36:36.352Z,14.70
2022-11-05T19:39:12.659Z,19.50
2022-11-05T19:41:45.698Z,15.60
2022-11-05T19:44:19.738Z,23.70
2022-11-05T19:46:54.401Z,18.50
2022-11-05T19:49:31.981Z,19.10
2022-11-05T19:52:08.215Z,19.40
2022-11-05T19:54:47.314Z,23.50
2022-11-05T19:57:23.160Z,17.50
2022-11-05T19:59:56.621Z,16.80
2022-11-05T20:02:32.153Z,16.30
2022-11-05T20:05:09.899Z,17.30
2022-11-05T20:07:52.270Z,15.50
2022-11-05T20:10:27.731Z,14.90
2022-11-05T20:13:00.559Z,15.80
2022-11-05T20:15:38.499Z,15.00
2022-11-05T20:18:14.459Z,16.80
2022-11-05T20:20:49.676Z,18.70
2022-11-05T20:23:22.838Z,18.90
2022-11-05T20:25:57.579Z,22.70
2022-11-05T20:28:35.606Z,21.00
2022-11-05T20:31:13.678Z,20.90
2022-11-05T20:33:49.093Z,21.40
2022-11-05T20:36:24.833Z,16.80
2022-11-05T20:39:00.689Z,14.20
2022-11-05T20:41:33.990Z,15.90
2022-11-05T20:44:06.633Z,17.90
2022-11-05T20:46:39.875Z,15.90
2022-11-05T20:49:14.989Z,14.90
2022-11-05T20:51:47.809Z,17.20
2022-11-05T20:54:20.714Z,16.90
2022-11-05T20:56:53.599Z,21.20
2022-11-05T20:59:27.620Z,20.90
2022-11-05T21:02:00.332Z,17.30
2022-11-05T21:04:36.197Z,20.40
2022-11-05T21:07:10.446Z,16.50
2022-11-05T21:09:43.018Z,22.80
2022-11-05T21:12:16.290Z,23.30
2022-11-05T21:14:52.778Z,29.00
2022-11-05T21:17:25.366Z,24.50
2022-11-05T21:19:57.939Z,19.60
2022-11-05T21:22:30.660Z,24.40
2022-11-05T21:25:05.477Z,25.20
2022-11-05T21:27:42.549Z,22.30
2022-11-05T21:30:17.179Z,20.20
2022-11-05T21:32:50.839Z,24.70
2022-11-05T21:35:24.080Z,20.60
2022-11-05T21:37:57.590Z,24.10
2022-11-05T21:43:00.971Z,18.10
2022-11-05T21:45:35.108Z,21.30
2022-11-05T21:48:09.649Z,23.80
2022-11-05T21:51:00.558Z,23.00
2022-11-05T21:53:50.559Z,23.30
2022-11-05T21:56:42.448Z,24.60
2022-11-05T21:59:33.628Z,22.70
2022-11-05T22:02:06.351Z,28.70
2022-11-05T22:04:41.095Z,20.40
2022-11-05T22:07:16.267Z,26.60
2022-11-05T22:10:09.705Z,23.40
2022-11-05T22:12:45.924Z,22.40
2022-11-05T22:15:18.911Z,23.30
2022-11-05T22:17:53.230Z,26.30
2022-11-05T22:20:25.979Z,24.00
2022-11-05T22:22:58.546Z,26.30
2022-11-05T22:25:33.059Z,28.30
2022-11-05T22:28:08.510Z,33.50
2022-11-05T22:30:41.280Z,30.40
2022-11-05T22:33:13.642Z,25.20
2022-11-05T22:35:46.518Z,30.30
2022-11-05T22:38:19.429Z,23.20
2022-11-05T22:40:51.941Z,25.90
2022-11-05T22:43:24.607Z,24.60
2022-11-05T22:45:57.248Z,26.60
2022-11-05T22:48:31.257Z,24.70
2022-11-05T22:51:08.622Z,24.00
2022-11-05T22:53:41.939Z,28.90
2022-11-05T22:56:16.398Z,26.90
2022-11-05T22:58:49.078Z,38.90
2022-11-05T23:01:22.927Z,32.90
2022-11-05T23:03:57.638Z,33.20
2022-11-05T23:06:49.818Z,29.60
2022-11-05T23:09:44.109Z,30.80
2022-11-05T23:12:26.304Z,28.20
2022-11-05T23:15:01.630Z,28.20
2022-11-05T23:17:52.028Z,26.80
2022-11-05T23:20:42.584Z,22.70
2022-11-05T23:23:36.448Z,27.40
2022-11-05T23:26:23.268Z,24.00
2022-11-05T23:28:55.879Z,26.80
2022-11-05T23:31:45.932Z,30.50
2022-11-05T23:34:18.483Z,28.40
2022-11-05T23:37:07.878Z,27.20
2022-11-05T23:39:42.871Z,40.10
2022-11-05T23:42:35.258Z,26.60
2022-11-05T23:45:26.618Z,33.40
2022-11-05T23:48:16.355Z,36.00
2022-11-05T23:50:52.920Z,34.20
2022-11-05T23:53:26.228Z,30.80
2022-11-05T23:56:03.706Z,25.80
2022-11-05T23:58:36.661Z,23.40
